createdAt,value
2022-10-17T00:00:18.915Z,1010.93
2022-10-17T00:01:18.830Z,1010.91
2022-10-17T00:02:18.533Z,1010.89
2022-10-17T00:03:18.642Z,1010.91
2022-10-17T00:04:18.741Z,1010.90
2022-10-17T00:05:18.900Z,1010.88
2022-10-17T00:06:19.007Z,1010.83
2022-10-17T00:07:19.106Z,1010.85
2022-10-17T00:08:19.324Z,1010.88
2022-10-17T00:09:19.403Z,1010.85
2022-10-17T00:10:19.502Z,1010.82
2022-10-17T00:11:19.636Z,1010.81
2022-10-17T00:12:19.784Z,1010.85
2022-10-17T00:13:19.917Z,1010.80
2022-10-17T00:14:19.998Z,1010.84
2022-10-17T00:15:20.175Z,1010.84
2022-10-17T00:16:20.256Z,1010.82
2022-10-17T00:17:20.363Z,1010.82
2022-10-17T00:18:20.535Z,1010.81
2022-10-17T00:19:20.624Z,1010.78
2022-10-17T00:20:20.765Z,1010.82
2022-10-17T00:21:20.875Z,1010.76
2022-10-17T00:22:20.971Z,1010.76
2022-10-17T00:23:21.137Z,1010.76
2022-10-17T00:24:21.286Z,1010.76
2022-10-17T00:25:21.391Z,1010.78
2022-10-17T00:26:21.516Z,1010.77
2022-10-17T00:27:21.627Z,1010.82
2022-10-17T00:28:21.811Z,1010.84
2022-10-17T00:29:21.888Z,1010.76
2022-10-17T00:30:22.025Z,1010.74
2022-10-17T00:31:22.197Z,1010.76
2022-10-17T00:32:22.372Z,1010.81
2022-10-17T00:33:22.484Z,1010.75
2022-10-17T00:34:22.633Z,1010.78
2022-10-17T00:35:22.734Z,1010.76
2022-10-17T00:36:22.881Z,1010.79
2022-10-17T00:37:22.969Z,1010.80
2022-10-17T00:38:23.121Z,1010.78
2022-10-17T00:39:23.256Z,1010.72
2022-10-17T00:40:23.342Z,1010.80
2022-10-17T00:41:23.463Z,1010.85
2022-10-17T00:42:23.563Z,1010.82
2022-10-17T00:43:23.655Z,1010.76
2022-10-17T00:44:23.834Z,1010.84
2022-10-17T00:45:23.943Z,1010.80
2022-10-17T00:46:24.031Z,1010.72
2022-10-17T00:47:24.126Z,1010.82
2022-10-17T00:48:24.255Z,1010.81
2022-10-17T00:49:24.392Z,1010.85
2022-10-17T00:50:24.536Z,1010.79
2022-10-17T00:51:24.682Z,1010.83
2022-10-17T00:52:25.113Z,1010.83
2022-10-17T00:53:24.912Z,1010.73
2022-10-17T00:54:25.072Z,1010.80
2022-10-17T00:55:25.174Z,1010.81
2022-10-17T00:56:25.454Z,1010.71
2022-10-17T00:57:25.454Z,1010.78
2022-10-17T00:58:25.633Z,1010.77
2022-10-17T00:59:25.755Z,1010.78
2022-10-17T01:00:25.904Z,1010.79
2022-10-17T01:01:26.094Z,1010.78
2022-10-17T01:02:26.456Z,1010.74
2022-10-17T01:03:26.421Z,1010.76
2022-10-17T01:04:26.492Z,1010.71
2022-10-17T01:05:26.633Z,1010.74
2022-10-17T01:06:26.801Z,1010.67
2022-10-17T01:07:26.872Z,1010.66
2022-10-17T01:08:27.032Z,1010.66
2022-10-17T01:09:27.223Z,1010.67
2022-10-17T01:10:27.316Z,1010.68
2022-10-17T01:11:27.408Z,1010.75
2022-10-17T01:12:27.862Z,1010.72
2022-10-17T01:13:27.742Z,1010.71
2022-10-17T01:14:27.938Z,1010.75
2022-10-17T01:15:28.024Z,1010.71
2022-10-17T01:16:28.173Z,1010.68
2022-10-17T01:17:28.311Z,1010.68
2022-10-17T01:18:28.450Z,1010.64
2022-10-17T01:19:28.625Z,1010.63
2022-10-17T01:20:28.730Z,1010.66
2022-10-17T01:21:28.863Z,1010.67
2022-10-17T01:22:29.200Z,1010.57
2022-10-17T01:23:29.143Z,1010.64
2022-10-17T01:24:29.289Z,1010.61
2022-10-17T01:25:29.473Z,1010.56
2022-10-17T01:26:29.564Z,1010.65
2022-10-17T01:27:29.659Z,1010.60
2022-10-17T01:28:29.908Z,1010.59
2022-10-17T01:29:29.963Z,1010.57
2022-10-17T01:30:30.140Z,1010.53
2022-10-17T01:31:30.306Z,1010.60
2022-10-17T01:32:30.698Z,1010.57
2022-10-17T01:33:30.560Z,1010.53
2022-10-17T01:34:30.724Z,1010.55
2022-10-17T01:35:30.820Z,1010.60
2022-10-17T01:36:30.940Z,1010.56
2022-10-17T01:37:31.081Z,1010.52
2022-10-17T01:38:31.262Z,1010.52
2022-10-17T01:39:33.390Z,1010.54
2022-10-17T01:40:31.448Z,1010.51
2022-10-17T01:41:31.612Z,1010.48
2022-10-17T01:42:31.792Z,1010.46
2022-10-17T01:43:31.853Z,1010.48
2022-10-17T01:44:31.989Z,1010.44
2022-10-17T01:45:32.126Z,1010.46
2022-10-17T01:46:32.268Z,1010.44
2022-10-17T01:47:32.370Z,1010.48
2022-10-17T01:48:32.518Z,1010.48
2022-10-17T01:49:32.645Z,1010.48
2022-10-17T01:50:33.336Z,1010.48
2022-10-17T01:51:32.942Z,1010.46
2022-10-17T01:52:33.091Z,1010.47
2022-10-17T01:53:33.209Z,1010.49
2022-10-17T01:54:33.360Z,1010.41
2022-10-17T01:55:33.565Z,1010.46
2022-10-17T01:56:33.662Z,1010.41
2022-10-17T01:57:33.737Z,1010.41
2022-10-17T01:58:33.889Z,1010.47
2022-10-17T01:59:34.018Z,1010.45
2022-10-17T02:00:34.128Z,1010.44
2022-10-17T02:01:34.291Z,1010.46
2022-10-17T02:02:34.430Z,1010.40
2022-10-17T02:03:34.572Z,1010.42
2022-10-17T02:04:34.731Z,1010.37
2022-10-17T02:05:34.878Z,1010.39
2022-10-17T02:06:35.058Z,1010.38
2022-10-17T02:07:35.171Z,1010.31
2022-10-17T02:08:35.260Z,1010.30
2022-10-17T02:09:35.358Z,1010.27
2022-10-17T02:10:35.486Z,1010.31
2022-10-17T02:11:35.631Z,1010.31
2022-10-17T02:12:35.789Z,1010.26
2022-10-17T02:13:35.922Z,1010.26
2022-10-17T02:14:36.647Z,1010.22
2022-10-17T02:15:36.243Z,1010.24
2022-10-17T02:16:36.396Z,1010.24
2022-10-17T02:17:36.568Z,1010.24
2022-10-17T02:18:36.708Z,1010.24
2022-10-17T02:19:36.779Z,1010.28
2022-10-17T02:20:36.919Z,1010.24
2022-10-17T02:21:37.081Z,1010.25
2022-10-17T02:22:37.248Z,1010.26
2022-10-17T02:23:37.371Z,1010.26
2022-10-17T02:24:37.531Z,1010.27
2022-10-17T02:25:37.680Z,1010.28
2022-10-17T02:26:37.810Z,1010.26
2022-10-17T02:27:37.967Z,1010.28
2022-10-17T02:28:38.154Z,1010.28
2022-10-17T02:29:38.257Z,1010.25
2022-10-17T02:30:38.409Z,1010.28
2022-10-17T02:31:38.496Z,1010.23
2022-10-17T02:32:38.648Z,1010.24
2022-10-17T02:33:38.778Z,1010.26
2022-10-17T02:34:38.935Z,1010.21
2022-10-17T02:35:39.016Z,1010.28
2022-10-17T02:36:39.169Z,1010.28
2022-10-17T02:37:39.330Z,1010.22
2022-10-17T02:38:39.442Z,1010.21
2022-10-17T02:39:39.556Z,1010.26
2022-10-17T02:40:39.666Z,1010.26
2022-10-17T02:41:39.830Z,1010.28
2022-10-17T02:42:39.980Z,1010.26
2022-10-17T02:43:40.085Z,1010.25
2022-10-17T02:44:40.197Z,1010.23
2022-10-17T02:45:40.299Z,1010.26
2022-10-17T02:46:40.439Z,1010.26
2022-10-17T02:47:40.598Z,1010.27
2022-10-17T02:48:40.747Z,1010.21
2022-10-17T02:49:40.838Z,1010.24
2022-10-17T02:50:40.995Z,1010.19
2022-10-17T02:51:41.127Z,1010.21
2022-10-17T02:52:41.268Z,1010.20
2022-10-17T02:53:41.441Z,1010.24
2022-10-17T02:54:41.577Z,1010.22
2022-10-17T02:55:41.688Z,1010.20
2022-10-17T02:56:41.828Z,1010.19
2022-10-17T02:57:41.974Z,1010.18
2022-10-17T02:58:42.127Z,1010.18
2022-10-17T02:59:42.225Z,1010.15
2022-10-17T03:00:42.384Z,1010.15
2022-10-17T03:01:42.631Z,1010.18
2022-10-17T03:02:42.635Z,1010.13
2022-10-17T03:03:42.769Z,1010.15
2022-10-17T03:04:42.897Z,1010.15
2022-10-17T03:05:43.047Z,1010.11
2022-10-17T03:06:43.167Z,1010.13
2022-10-17T03:07:43.317Z,1010.11
2022-10-17T03:08:43.447Z,1010.12
2022-10-17T03:09:43.577Z,1010.20
2022-10-17T03:10:43.744Z,1010.14
2022-10-17T03:11:43.833Z,1010.11
2022-10-17T03:12:44.019Z,1010.13
2022-10-17T03:13:44.185Z,1010.10
2022-10-17T03:14:44.289Z,1010.08
2022-10-17T03:15:44.498Z,1010.12
2022-10-17T03:16:44.618Z,1010.10
2022-10-17T03:18:47.958Z,1010.07
2022-10-17T03:19:46.067Z,1010.12
2022-10-17T03:20:45.196Z,1010.07
2022-10-17T03:21:45.286Z,1010.10
2022-10-17T03:22:46.182Z,1010.14
2022-10-17T03:23:45.587Z,1010.12
2022-10-17T03:24:45.705Z,1010.24
2022-10-17T03:25:45.807Z,1010.25
2022-10-17T03:27:46.105Z,1010.18
2022-10-17T03:28:48.539Z,1010.15
2022-10-17T03:29:46.415Z,1010.18
2022-10-17T03:30:47.228Z,1010.19
2022-10-17T03:31:47.333Z,1010.15
2022-10-17T03:32:46.734Z,1010.23
2022-10-17T03:33:46.912Z,1010.16
2022-10-17T03:34:48.505Z,1010.21
2022-10-17T03:35:47.901Z,1010.25
2022-10-17T03:36:47.354Z,1010.23
2022-10-17T03:37:47.516Z,1010.25
2022-10-17T03:38:47.636Z,1010.24
2022-10-17T03:39:47.803Z,1010.24
2022-10-17T03:40:48.447Z,1010.23
2022-10-17T03:41:48.024Z,1010.25
2022-10-17T03:42:48.192Z,1010.24
2022-10-17T03:43:48.305Z,1010.30
2022-10-17T03:44:48.423Z,1010.32
2022-10-17T03:45:48.617Z,1010.29
2022-10-17T03:46:48.693Z,1010.36
2022-10-17T03:47:48.868Z,1010.33
2022-10-17T03:48:48.959Z,1010.38
2022-10-17T03:49:49.097Z,1010.42
2022-10-17T03:50:49.305Z,1010.34
2022-10-17T03:51:49.444Z,1010.41
2022-10-17T03:52:49.551Z,1010.35
2022-10-17T03:53:49.704Z,1010.35
2022-10-17T03:54:49.772Z,1010.31
2022-10-17T03:55:49.946Z,1010.38
2022-10-17T03:56:50.085Z,1010.40
2022-10-17T03:57:50.161Z,1010.45
2022-10-17T03:58:50.245Z,1010.45
2022-10-17T03:59:50.408Z,1010.43
2022-10-17T04:00:50.636Z,1010.47
2022-10-17T04:01:50.694Z,1010.44
2022-10-17T04:02:50.842Z,1010.44
2022-10-17T04:03:51.018Z,1010.48
2022-10-17T04:04:51.095Z,1010.45
2022-10-17T04:05:51.221Z,1010.48
2022-10-17T04:06:51.370Z,1010.50
2022-10-17T04:07:51.544Z,1010.47
2022-10-17T04:08:51.675Z,1010.47
2022-10-17T04:09:51.845Z,1010.49
2022-10-17T04:10:51.958Z,1010.45
2022-10-17T04:11:52.107Z,1010.49
2022-10-17T04:12:52.223Z,1010.53
2022-10-17T04:13:52.381Z,1010.50
2022-10-17T04:14:52.502Z,1010.52
2022-10-17T04:15:52.671Z,1010.51
2022-10-17T04:16:52.836Z,1010.53
2022-10-17T04:17:53.096Z,1010.50
2022-10-17T04:18:53.143Z,1010.48
2022-10-17T04:19:53.303Z,1010.53
2022-10-17T04:20:53.552Z,1010.51
2022-10-17T04:21:53.634Z,1010.52
2022-10-17T04:22:53.799Z,1010.56
2022-10-17T04:23:53.964Z,1010.58
2022-10-17T04:24:54.132Z,1010.58
2022-10-17T04:25:54.326Z,1010.52
2022-10-17T04:26:54.406Z,1010.52
2022-10-17T04:27:54.511Z,1010.55
2022-10-17T04:28:54.639Z,1010.59
2022-10-17T04:29:54.794Z,1010.55
2022-10-17T04:30:54.944Z,1010.54
2022-10-17T04:31:55.083Z,1010.52
2022-10-17T04:32:55.221Z,1010.52
2022-10-17T04:33:55.435Z,1010.49
2022-10-17T04:34:55.542Z,1010.53
2022-10-17T04:35:55.622Z,1010.46
2022-10-17T04:36:55.760Z,1010.42
2022-10-17T04:37:55.902Z,1010.43
2022-10-17T04:38:56.098Z,1010.40
2022-10-17T04:39:56.285Z,1010.41
2022-10-17T04:40:56.353Z,1010.41
2022-10-17T04:41:56.502Z,1010.39
2022-10-17T04:42:56.614Z,1010.42
2022-10-17T04:43:56.791Z,1010.43
2022-10-17T04:44:56.921Z,1010.45
2022-10-17T04:45:57.023Z,1010.46
2022-10-17T04:46:57.175Z,1010.48
2022-10-17T04:47:57.322Z,1010.44
2022-10-17T04:48:57.490Z,1010.50
2022-10-17T04:49:57.678Z,1010.54
2022-10-17T04:50:57.756Z,1010.54
2022-10-17T04:51:57.891Z,1010.53
2022-10-17T04:52:58.030Z,1010.56
2022-10-17T04:53:58.185Z,1010.53
2022-10-17T04:54:58.271Z,1010.52
2022-10-17T04:55:58.369Z,1010.52
2022-10-17T04:56:58.534Z,1010.50
2022-10-17T04:57:58.683Z,1010.50
2022-10-17T04:58:58.802Z,1010.51
2022-10-17T04:59:59.064Z,1010.50
2022-10-17T05:00:59.140Z,1010.45
2022-10-17T05:01:59.232Z,1010.46
2022-10-17T05:02:59.351Z,1010.45
2022-10-17T05:03:59.513Z,1010.50
2022-10-17T05:04:59.660Z,1010.50
2022-10-17T05:05:59.799Z,1010.53
2022-10-17T05:06:59.979Z,1010.50
2022-10-17T05:08:00.142Z,1010.47
2022-10-17T05:09:00.249Z,1010.54
2022-10-17T05:10:00.399Z,1010.51
2022-10-17T05:11:00.591Z,1010.53
2022-10-17T05:12:00.701Z,1010.51
2022-10-17T05:13:00.781Z,1010.52
2022-10-17T05:14:00.925Z,1010.58
2022-10-17T05:15:01.059Z,1010.55
2022-10-17T05:16:01.209Z,1010.60
2022-10-17T05:17:01.409Z,1010.65
2022-10-17T05:18:01.509Z,1010.73
2022-10-17T05:19:01.648Z,1010.66
2022-10-17T05:20:01.801Z,1010.63
2022-10-17T05:21:01.969Z,1010.64
2022-10-17T05:22:02.149Z,1010.63
2022-10-17T05:23:02.295Z,1010.74
2022-10-17T05:24:02.411Z,1010.72
2022-10-17T05:25:02.569Z,1010.72
2022-10-17T05:26:02.755Z,1010.68
2022-10-17T05:27:02.915Z,1010.67
2022-10-17T05:28:03.050Z,1010.59
2022-10-17T05:29:03.185Z,1010.72
2022-10-17T05:30:03.229Z,1010.63
2022-10-17T05:31:03.358Z,1010.67
2022-10-17T05:32:03.522Z,1010.70
2022-10-17T05:33:03.805Z,1010.62
2022-10-17T05:34:03.777Z,1010.76
2022-10-17T05:35:03.918Z,1010.82
2022-10-17T05:36:04.049Z,1010.74
2022-10-17T05:37:04.171Z,1010.84
2022-10-17T05:38:04.308Z,1010.86
2022-10-17T05:39:04.482Z,1010.82
2022-10-17T05:40:04.641Z,1010.91
2022-10-17T05:41:04.769Z,1010.88
2022-10-17T05:42:04.911Z,1010.86
2022-10-17T05:43:05.062Z,1010.91
2022-10-17T05:44:05.758Z,1010.97
2022-10-17T05:45:05.276Z,1010.94
2022-10-17T05:46:05.419Z,1010.93
2022-10-17T05:47:05.544Z,1010.92
2022-10-17T05:48:06.082Z,1010.92
2022-10-17T05:49:14.928Z,1010.95
2022-10-17T05:50:06.908Z,1010.98
2022-10-17T05:51:06.030Z,1010.97
2022-10-17T05:52:06.166Z,1010.98
2022-10-17T05:53:06.319Z,1010.91
2022-10-17T05:54:06.417Z,1010.89
2022-10-17T05:55:06.571Z,1010.80
2022-10-17T05:56:06.679Z,1010.84
2022-10-17T05:57:06.792Z,1010.88
2022-10-17T05:58:06.887Z,1010.90
2022-10-17T05:59:07.038Z,1010.90
2022-10-17T06:00:07.206Z,1010.97
2022-10-17T06:01:10.625Z,1010.96
2022-10-17T06:02:08.426Z,1010.95
2022-10-17T06:03:07.498Z,1010.96
2022-10-17T06:04:07.645Z,1010.96
2022-10-17T06:05:07.770Z,1010.97
2022-10-17T06:06:07.918Z,1011.00
2022-10-17T06:07:08.038Z,1011.00
2022-10-17T06:08:08.137Z,1010.95
2022-10-17T06:09:08.276Z,1011.06
2022-10-17T06:10:08.470Z,1011.03
2022-10-17T06:11:10.207Z,1011.00
2022-10-17T06:12:08.657Z,1011.02
2022-10-17T06:13:08.794Z,1010.95
2022-10-17T06:14:08.946Z,1010.99
2022-10-17T06:15:09.118Z,1011.01
2022-10-17T06:16:09.226Z,1011.01
2022-10-17T06:17:13.510Z,1011.11
2022-10-17T06:18:10.500Z,1011.03
2022-10-17T06:19:09.601Z,1011.06
2022-10-17T06:20:09.738Z,1011.09
2022-10-17T06:21:09.898Z,1011.09
2022-10-17T06:22:10.043Z,1011.14
2022-10-17T06:23:10.189Z,1011.17
2022-10-17T06:24:10.300Z,1011.13
2022-10-17T06:25:10.398Z,1011.19
2022-10-17T06:26:10.548Z,1011.27
2022-10-17T06:27:11.974Z,1011.24
2022-10-17T06:28:11.007Z,1011.24
2022-10-17T06:29:11.037Z,1011.24
2022-10-17T06:30:11.837Z,1011.33
2022-10-17T06:31:11.209Z,1011.29
2022-10-17T06:32:14.258Z,1011.30
2022-10-17T06:33:11.443Z,1011.29
2022-10-17T06:34:11.549Z,1011.23
2022-10-17T06:35:11.677Z,1011.29
2022-10-17T06:36:11.871Z,1011.28
2022-10-17T06:37:11.939Z,1011.32
2022-10-17T06:38:12.081Z,1011.40
2022-10-17T06:39:12.308Z,1011.35
2022-10-17T06:40:12.370Z,1011.39
2022-10-17T06:41:12.467Z,1011.38
2022-10-17T06:42:12.606Z,1011.42
2022-10-17T06:43:12.748Z,1011.36
2022-10-17T06:44:12.907Z,1011.44
2022-10-17T06:45:12.987Z,1011.38
2022-10-17T06:46:13.131Z,1011.43
2022-10-17T06:47:14.340Z,1011.38
2022-10-17T06:48:13.416Z,1011.42
2022-10-17T06:49:13.560Z,1011.45
2022-10-17T06:50:13.712Z,1011.46
2022-10-17T06:51:13.806Z,1011.48
2022-10-17T06:52:13.950Z,1011.47
2022-10-17T06:53:14.097Z,1011.46
2022-10-17T06:54:14.214Z,1011.42
2022-10-17T06:55:16.837Z,1011.47
2022-10-17T06:56:15.437Z,1011.45
2022-10-17T06:57:14.569Z,1011.41
2022-10-17T06:58:14.707Z,1011.44
2022-10-17T06:59:14.846Z,1011.45
2022-10-17T07:00:15.017Z,1011.44
2022-10-17T07:01:15.157Z,1011.42
2022-10-17T07:02:15.299Z,1011.41
2022-10-17T07:03:15.415Z,1011.44
2022-10-17T07:04:15.557Z,1011.38
2022-10-17T07:05:15.671Z,1011.39
2022-10-17T07:06:15.798Z,1011.40
2022-10-17T07:07:15.890Z,1011.37
2022-10-17T07:08:16.037Z,1011.42
2022-10-17T07:09:16.157Z,1011.41
2022-10-17T07:10:16.325Z,1011.50
2022-10-17T07:11:16.450Z,1011.51
2022-10-17T07:12:16.538Z,1011.59
2022-10-17T07:13:16.668Z,1011.53
2022-10-17T07:14:16.817Z,1011.62
2022-10-17T07:15:16.926Z,1011.58
2022-10-17T07:16:17.033Z,1011.66
2022-10-17T07:17:17.177Z,1011.63
2022-10-17T07:18:17.326Z,1011.65
2022-10-17T07:19:17.435Z,1011.60
2022-10-17T07:20:17.573Z,1011.67
2022-10-17T07:21:17.702Z,1011.69
2022-10-17T07:22:17.879Z,1011.72
2022-10-17T07:23:18.695Z,1011.69
2022-10-17T07:24:18.078Z,1011.72
2022-10-17T07:25:18.175Z,1011.74
2022-10-17T07:26:18.327Z,1011.71
2022-10-17T07:27:19.157Z,1011.69
2022-10-17T07:28:18.578Z,1011.72
2022-10-17T07:29:18.654Z,1011.74
2022-10-17T07:30:18.816Z,1011.66
2022-10-17T07:31:18.916Z,1011.71
2022-10-17T07:32:19.075Z,1011.65
2022-10-17T07:33:19.175Z,1011.69
2022-10-17T07:34:19.321Z,1011.71
2022-10-17T07:35:19.395Z,1011.77
2022-10-17T07:36:19.547Z,1011.72
2022-10-17T07:37:19.716Z,1011.74
2022-10-17T07:38:19.777Z,1011.74
2022-10-17T07:39:19.878Z,1011.74
2022-10-17T07:40:20.743Z,1011.72
2022-10-17T07:41:21.796Z,1011.75
2022-10-17T07:42:20.277Z,1011.76
2022-10-17T07:43:21.097Z,1011.75
2022-10-17T07:44:20.907Z,1011.74
2022-10-17T07:45:22.068Z,1011.73
2022-10-17T07:46:20.736Z,1011.75
2022-10-17T07:47:20.877Z,1011.70
2022-10-17T07:48:20.984Z,1011.68
2022-10-17T07:49:21.558Z,1011.73
2022-10-17T07:50:21.217Z,1011.73
2022-10-17T07:51:21.337Z,1011.71
2022-10-17T07:52:21.440Z,1011.62
2022-10-17T07:53:21.585Z,1011.58
2022-10-17T07:54:21.759Z,1011.64
2022-10-17T07:55:21.851Z,1011.63
2022-10-17T07:56:21.968Z,1011.61
2022-10-17T07:57:22.809Z,1011.73
2022-10-17T07:58:22.206Z,1011.66
2022-10-17T07:59:22.867Z,1011.66
2022-10-17T08:00:22.927Z,1011.68
2022-10-17T08:01:23.293Z,1011.65
2022-10-17T08:02:23.416Z,1011.67
2022-10-17T08:03:23.535Z,1011.67
2022-10-17T08:04:22.954Z,1011.68
2022-10-17T08:05:23.775Z,1011.68
2022-10-17T08:06:23.454Z,1011.66
2022-10-17T08:07:28.351Z,1011.65
2022-10-17T08:08:24.919Z,1011.64
2022-10-17T08:09:23.526Z,1011.75
2022-10-17T08:10:23.637Z,1011.72
2022-10-17T08:11:23.717Z,1011.75
2022-10-17T08:12:23.859Z,1011.77
2022-10-17T08:13:24.010Z,1011.75
2022-10-17T08:14:24.116Z,1011.66
2022-10-17T08:15:27.937Z,1011.65
2022-10-17T08:16:25.398Z,1011.67
2022-10-17T08:17:24.538Z,1011.55
2022-10-17T08:18:24.633Z,1011.61
2022-10-17T08:19:24.776Z,1011.62
2022-10-17T08:20:24.968Z,1011.56
2022-10-17T08:21:25.027Z,1011.60
2022-10-17T08:22:25.166Z,1011.60
2022-10-17T08:23:25.306Z,1011.61
2022-10-17T08:24:25.447Z,1011.62
2022-10-17T08:25:25.613Z,1011.58
2022-10-17T08:26:25.885Z,1011.63
2022-10-17T08:27:25.810Z,1011.64
2022-10-17T08:28:25.967Z,1011.60
2022-10-17T08:29:26.079Z,1011.71
2022-10-17T08:30:26.184Z,1011.70
2022-10-17T08:31:26.353Z,1011.73
2022-10-17T08:32:26.650Z,1011.79
2022-10-17T08:33:26.555Z,1011.71
2022-10-17T08:34:26.646Z,1011.71
2022-10-17T08:35:26.826Z,1011.73
2022-10-17T08:36:27.479Z,1011.73
2022-10-17T08:37:27.324Z,1011.78
2022-10-17T08:38:27.952Z,1011.73
2022-10-17T08:39:27.307Z,1011.77
2022-10-17T08:40:27.458Z,1011.81
2022-10-17T08:41:27.589Z,1011.84
2022-10-17T08:42:27.670Z,1011.81
2022-10-17T08:43:28.445Z,1011.86
2022-10-17T08:44:27.915Z,1011.88
2022-10-17T08:45:28.068Z,1011.87
2022-10-17T08:46:28.209Z,1011.88
2022-10-17T08:47:28.746Z,1011.86
2022-10-17T08:48:28.456Z,1011.91
2022-10-17T08:49:28.608Z,1011.87
2022-10-17T08:50:28.705Z,1011.90
2022-10-17T08:51:28.879Z,1011.81
2022-10-17T08:52:28.961Z,1011.88
2022-10-17T08:53:29.108Z,1011.92
2022-10-17T08:54:29.227Z,1011.96
2022-10-17T08:55:29.336Z,1011.89
2022-10-17T08:56:47.597Z,1011.89
2022-10-17T08:57:31.045Z,1011.95
2022-10-17T08:58:29.750Z,1011.92
2022-10-17T08:59:29.885Z,1012.01
2022-10-17T09:00:29.948Z,1012.03
2022-10-17T09:01:30.107Z,1012.00
2022-10-17T09:02:30.349Z,1011.97
2022-10-17T09:03:30.434Z,1011.96
2022-10-17T09:05:30.540Z,1011.99
2022-10-17T09:06:30.677Z,1012.01
2022-10-17T09:07:31.049Z,1011.95
2022-10-17T09:08:30.942Z,1011.96
2022-10-17T09:09:31.064Z,1011.93
2022-10-17T09:10:31.171Z,1011.94
2022-10-17T09:11:31.315Z,1011.98
2022-10-17T09:12:31.839Z,1012.01
2022-10-17T09:13:31.614Z,1012.00
2022-10-17T09:14:31.703Z,1011.95
2022-10-17T09:15:31.806Z,1011.96
2022-10-17T09:16:31.908Z,1011.94
2022-10-17T09:17:32.496Z,1012.00
2022-10-17T09:18:32.178Z,1011.98
2022-10-17T09:19:32.340Z,1011.93
2022-10-17T09:20:32.460Z,1011.91
2022-10-17T09:21:32.561Z,1011.92
2022-10-17T09:22:32.659Z,1011.98
2022-10-17T09:23:32.800Z,1011.99
2022-10-17T09:24:32.960Z,1011.95
2022-10-17T09:25:33.081Z,1012.03
2022-10-17T09:26:33.220Z,1012.02
2022-10-17T09:27:33.365Z,1012.11
2022-10-17T09:28:33.494Z,1012.09
2022-10-17T09:29:37.927Z,1012.21
2022-10-17T09:30:47.499Z,1012.19
2022-10-17T09:31:34.810Z,1012.19
2022-10-17T09:32:33.943Z,1012.21
2022-10-17T09:33:35.429Z,1012.23
2022-10-17T09:34:35.212Z,1012.19
2022-10-17T09:35:34.366Z,1012.36
2022-10-17T09:36:34.484Z,1012.32
2022-10-17T09:37:34.633Z,1012.33
2022-10-17T09:38:34.750Z,1012.35
2022-10-17T09:39:34.887Z,1012.37
2022-10-17T09:40:34.990Z,1012.47
2022-10-17T09:41:50.506Z,1012.42
2022-10-17T09:42:36.204Z,1012.50
2022-10-17T09:43:35.342Z,1012.54
2022-10-17T09:44:35.491Z,1012.46
2022-10-17T09:45:35.583Z,1012.45
2022-10-17T09:46:35.688Z,1012.44
2022-10-17T09:47:35.840Z,1012.47
2022-10-17T09:48:35.947Z,1012.45
2022-10-17T09:49:36.103Z,1012.53
2022-10-17T09:50:36.248Z,1012.53
2022-10-17T09:51:36.348Z,1012.58
2022-10-17T09:52:36.456Z,1012.58
2022-10-17T09:53:36.602Z,1012.58
2022-10-17T09:54:36.710Z,1012.59
2022-10-17T09:55:36.901Z,1012.61
2022-10-17T09:56:37.001Z,1012.68
2022-10-17T09:57:37.112Z,1012.71
2022-10-17T09:58:37.223Z,1012.83
2022-10-17T09:59:37.376Z,1012.78
2022-10-17T10:00:37.514Z,1012.88
2022-10-17T10:01:37.593Z,1012.89
2022-10-17T10:02:37.710Z,1012.83
2022-10-17T10:03:37.825Z,1012.84
2022-10-17T10:04:59.669Z,1012.80
2022-10-17T10:05:39.129Z,1012.77
2022-10-17T10:06:38.191Z,1012.81
2022-10-17T10:07:38.328Z,1012.76
2022-10-17T10:08:38.442Z,1012.87
2022-10-17T10:09:39.629Z,1012.94
2022-10-17T10:10:38.673Z,1012.86
2022-10-17T10:11:38.838Z,1012.94
2022-10-17T10:12:38.985Z,1012.87
2022-10-17T10:13:39.065Z,1012.93
2022-10-17T10:14:39.174Z,1012.87
2022-10-17T10:15:39.321Z,1012.97
2022-10-17T10:16:39.464Z,1012.99
2022-10-17T10:17:39.584Z,1013.03
2022-10-17T10:18:39.717Z,1013.05
2022-10-17T10:19:39.811Z,1012.99
2022-10-17T10:20:39.893Z,1013.02
2022-10-17T10:21:41.413Z,1013.01
2022-10-17T10:22:40.163Z,1013.05
2022-10-17T10:23:40.422Z,1013.13
2022-10-17T10:24:40.412Z,1013.13
2022-10-17T10:25:40.514Z,1013.17
2022-10-17T10:26:40.652Z,1013.20
2022-10-17T10:27:40.805Z,1013.24
2022-10-17T10:28:40.978Z,1013.26
2022-10-17T10:29:41.057Z,1013.22
2022-10-17T10:30:41.166Z,1013.22
2022-10-17T10:31:41.330Z,1013.30
2022-10-17T10:32:41.421Z,1013.35
2022-10-17T10:33:41.887Z,1013.46
2022-10-17T10:34:41.674Z,1013.49
2022-10-17T10:35:41.842Z,1013.44
2022-10-17T10:36:41.923Z,1013.40
2022-10-17T10:37:42.070Z,1013.49
2022-10-17T10:38:42.205Z,1013.47
2022-10-17T10:39:42.363Z,1013.49
2022-10-17T10:40:42.463Z,1013.48
2022-10-17T10:41:42.603Z,1013.52
2022-10-17T10:42:42.765Z,1013.58
2022-10-17T10:43:42.916Z,1013.54
2022-10-17T10:44:43.074Z,1013.52
2022-10-17T10:45:48.130Z,1013.41
2022-10-17T10:46:44.285Z,1013.47
2022-10-17T10:47:43.477Z,1013.50
2022-10-17T10:48:43.694Z,1013.46
2022-10-17T10:49:43.736Z,1013.49
2022-10-17T10:50:45.433Z,1013.44
2022-10-17T10:51:43.932Z,1013.48
2022-10-17T10:52:44.076Z,1013.50
2022-10-17T10:53:44.185Z,1013.50
2022-10-17T10:54:44.374Z,1013.57
2022-10-17T10:55:44.493Z,1013.67
2022-10-17T10:56:44.573Z,1013.62
2022-10-17T10:57:44.749Z,1013.61
2022-10-17T10:58:44.828Z,1013.60
2022-10-17T10:59:44.986Z,1013.58
2022-10-17T11:00:45.124Z,1013.52
2022-10-17T11:01:45.237Z,1013.52
2022-10-17T11:02:45.344Z,1013.63
2022-10-17T11:03:45.512Z,1013.62
2022-10-17T11:04:45.584Z,1013.62
2022-10-17T11:05:45.735Z,1013.75
2022-10-17T11:06:45.833Z,1013.63
2022-10-17T11:07:45.987Z,1013.65
2022-10-17T11:08:46.117Z,1013.67
2022-10-17T11:09:46.205Z,1013.66
2022-10-17T11:10:46.295Z,1013.63
2022-10-17T11:11:46.443Z,1013.59
2022-10-17T11:12:46.566Z,1013.62
2022-10-17T11:13:49.549Z,1013.76
2022-10-17T11:14:47.803Z,1013.80
2022-10-17T11:15:46.956Z,1013.89
2022-10-17T11:16:47.139Z,1013.92
2022-10-17T11:17:47.197Z,1013.91
2022-10-17T11:18:47.318Z,1013.94
2022-10-17T11:19:47.427Z,1013.96
2022-10-17T11:20:47.565Z,1013.90
2022-10-17T11:21:47.719Z,1013.90
2022-10-17T11:22:47.818Z,1013.93
2022-10-17T11:23:47.989Z,1013.96
2022-10-17T11:24:48.069Z,1014.10
2022-10-17T11:26:52.048Z,1014.12
2022-10-17T11:27:52.023Z,1014.02
2022-10-17T11:28:52.233Z,1014.08
2022-10-17T11:29:52.372Z,1014.06
2022-10-17T11:30:52.412Z,1014.09
2022-10-17T11:31:52.509Z,1014.11
2022-10-17T11:32:53.376Z,1014.04
2022-10-17T11:33:52.807Z,1013.96
2022-10-17T11:34:52.911Z,1014.00
2022-10-17T11:35:53.726Z,1014.04
2022-10-17T11:36:53.159Z,1014.02
2022-10-17T11:37:53.961Z,1013.99
2022-10-17T11:38:53.420Z,1014.06
2022-10-17T11:39:53.504Z,1014.02
2022-10-17T11:40:53.578Z,1014.07
2022-10-17T11:41:55.413Z,1014.14
2022-10-17T11:42:53.884Z,1014.13
2022-10-17T11:43:53.977Z,1014.07
2022-10-17T11:44:54.245Z,1014.02
2022-10-17T11:45:54.309Z,1013.98
2022-10-17T11:46:54.795Z,1013.96
2022-10-17T11:47:54.519Z,1013.92
2022-10-17T11:48:54.658Z,1013.86
2022-10-17T11:49:55.069Z,1013.89
2022-10-17T11:52:00.738Z,1013.92
2022-10-17T11:52:57.125Z,1014.00
2022-10-17T11:53:55.311Z,1013.95
2022-10-17T11:54:55.417Z,1013.98
2022-10-17T11:55:55.500Z,1013.91
2022-10-17T11:56:55.659Z,1013.83
2022-10-17T11:57:55.746Z,1013.73
2022-10-17T11:58:55.919Z,1013.68
2022-10-17T11:59:55.996Z,1013.74
2022-10-17T12:00:56.167Z,1013.73
2022-10-17T12:01:56.246Z,1013.71
2022-10-17T12:02:56.391Z,1013.72
2022-10-17T12:03:56.533Z,1013.69
2022-10-17T12:04:56.659Z,1013.80
2022-10-17T12:05:56.763Z,1013.84
2022-10-17T12:06:56.866Z,1013.90
2022-10-17T12:07:57.097Z,1013.94
2022-10-17T12:08:57.099Z,1013.99
2022-10-17T12:09:57.219Z,1013.97
2022-10-17T12:10:57.314Z,1014.05
2022-10-17T12:11:57.423Z,1014.10